createdAt,value
2018-12-18T00:02:13.589Z,28.03
2018-12-18T00:04:36.781Z,26.47
2018-12-18T00:06:59.939Z,26.63
2018-12-18T00:09:23.058Z,28.40
2018-12-18T00:11:46.500Z,28.30
2018-12-18T00:14:09.592Z,27.13
2018-12-18T00:16:32.771Z,26.30
2018-12-18T00:18:55.897Z,26.83
2018-12-18T00:21:19.019Z,27.40
2018-12-18T00:23:42.157Z,25.80
2018-12-18T00:26:05.289Z,26.37
2018-12-18T00:28:28.437Z,26.87
2018-12-18T00:30:52.210Z,26.13
2018-12-18T00:33:15.341Z,26.43
2018-12-18T00:35:38.494Z,26.53
2018-12-18T00:38:01.607Z,28.00
2018-12-18T00:40:24.793Z,26.43
2018-12-18T00:42:47.911Z,28.03
2018-12-18T00:45:11.080Z,27.57
2018-12-18T00:47:34.221Z,25.43
2018-12-18T00:49:57.379Z,26.57
2018-12-18T00:52:20.532Z,27.13
2018-12-18T00:54:43.709Z,28.30
2018-12-18T00:57:06.837Z,27.80
2018-12-18T00:59:29.986Z,27.27
2018-12-18T01:01:58.612Z,27.17
2018-12-18T01:04:21.786Z,25.93
2018-12-18T01:06:44.956Z,26.63
2018-12-18T01:09:08.168Z,27.13
2018-12-18T01:11:31.703Z,27.40
2018-12-18T01:13:54.828Z,27.97
2018-12-18T01:16:17.943Z,28.07
2018-12-18T01:18:41.076Z,27.77
2018-12-18T01:21:04.275Z,27.20
2018-12-18T01:23:27.437Z,26.40
2018-12-18T01:25:50.584Z,27.90
2018-12-18T01:28:13.756Z,28.50
2018-12-18T01:30:36.866Z,28.77
2018-12-18T01:33:00.014Z,27.07
2018-12-18T01:35:23.129Z,28.60
2018-12-18T01:37:46.250Z,27.80
2018-12-18T01:40:09.459Z,30.20
2018-12-18T01:42:32.562Z,29.63
2018-12-18T01:44:55.684Z,29.17
2018-12-18T01:47:18.838Z,27.27
2018-12-18T01:49:42.011Z,29.50
2018-12-18T01:52:05.125Z,29.50
2018-12-18T01:54:28.276Z,29.60
2018-12-18T01:56:51.400Z,29.20
2018-12-18T01:59:14.565Z,30.60
2018-12-18T02:01:37.705Z,29.23
2018-12-18T02:04:05.948Z,29.97
2018-12-18T02:06:25.957Z,31.20
2018-12-18T02:08:49.099Z,29.60
2018-12-18T02:11:12.252Z,29.87
2018-12-18T02:13:35.373Z,31.73
2018-12-18T02:15:58.524Z,31.30
2018-12-18T02:18:21.679Z,29.87
2018-12-18T02:20:44.815Z,30.10
2018-12-18T02:23:08.002Z,30.83
2018-12-18T02:25:31.106Z,31.00
2018-12-18T02:27:54.297Z,30.47
2018-12-18T02:30:17.437Z,30.60
2018-12-18T02:32:40.597Z,31.87
2018-12-18T02:35:04.424Z,33.87
2018-12-18T02:37:27.575Z,32.80
2018-12-18T02:39:50.776Z,31.83
2018-12-18T02:42:13.905Z,31.60
2018-12-18T02:44:37.138Z,30.60
2018-12-18T02:47:00.287Z,31.57
2018-12-18T02:49:23.412Z,30.93
2018-12-18T02:51:46.570Z,30.97
2018-12-18T02:54:09.674Z,30.80
2018-12-18T02:56:32.820Z,30.73
2018-12-18T02:58:56.034Z,30.63
2018-12-18T03:01:19.148Z,29.97
2018-12-18T03:03:42.305Z,31.30
2018-12-18T03:06:05.465Z,32.73
2018-12-18T03:08:28.643Z,33.53
2018-12-18T03:10:51.802Z,32.10
2018-12-18T03:13:14.978Z,32.13
2018-12-18T03:15:38.178Z,30.30
2018-12-18T03:18:01.309Z,31.37
2018-12-18T03:20:24.450Z,32.13
2018-12-18T03:22:47.597Z,32.57
2018-12-18T03:25:10.711Z,31.83
2018-12-18T03:27:33.853Z,30.63
2018-12-18T03:29:57.017Z,31.37
2018-12-18T03:32:21.703Z,32.73
2018-12-18T03:34:44.825Z,31.67
2018-12-18T03:37:07.961Z,32.63
2018-12-18T03:39:31.076Z,31.93
2018-12-18T03:41:54.222Z,31.57
2018-12-18T03:44:17.353Z,32.03
2018-12-18T03:46:40.935Z,33.13
2018-12-18T03:49:04.073Z,31.13
2018-12-18T03:51:27.235Z,32.47
2018-12-18T03:53:50.339Z,31.83
2018-12-18T03:56:13.444Z,32.90
2018-12-18T03:58:36.570Z,32.90
2018-12-18T04:00:59.711Z,31.30
2018-12-18T04:03:22.878Z,33.27
2018-12-18T04:05:46.001Z,31.63
2018-12-18T04:08:09.169Z,34.20
2018-12-18T04:10:32.285Z,32.93
2018-12-18T04:12:55.395Z,32.87
2018-12-18T04:15:18.554Z,34.33
2018-12-18T04:17:41.692Z,31.80
2018-12-18T04:20:05.191Z,31.80
2018-12-18T04:22:28.368Z,33.30
2018-12-18T04:24:51.507Z,34.50
2018-12-18T04:27:14.635Z,32.07
2018-12-18T04:29:37.737Z,32.40
2018-12-18T04:32:00.878Z,31.80
2018-12-18T04:34:24.038Z,32.47
2018-12-18T04:36:47.188Z,34.30
2018-12-18T04:39:10.291Z,33.90
2018-12-18T04:41:33.520Z,33.00
2018-12-18T04:43:56.652Z,33.63
2018-12-18T04:46:19.811Z,33.77
2018-12-18T04:48:42.953Z,32.10
2018-12-18T04:51:06.078Z,33.00
2018-12-18T04:53:29.199Z,33.73
2018-12-18T04:55:52.326Z,32.73
2018-12-18T04:58:15.495Z,33.73
2018-12-18T05:00:38.629Z,33.47
2018-12-18T05:03:01.740Z,33.07
2018-12-18T05:05:24.912Z,34.13
2018-12-18T05:07:48.014Z,32.23
2018-12-18T05:10:11.242Z,33.60
2018-12-18T05:12:34.366Z,34.27
2018-12-18T05:14:57.489Z,32.50
2018-12-18T05:17:20.639Z,35.27
2018-12-18T05:19:43.759Z,33.37
2018-12-18T05:22:06.945Z,33.00
2018-12-18T05:24:30.064Z,34.53
2018-12-18T05:26:53.247Z,34.30
2018-12-18T05:29:16.391Z,33.73
2018-12-18T05:31:39.511Z,34.17
2018-12-18T05:34:02.626Z,32.57
2018-12-18T05:36:26.015Z,33.60
2018-12-18T05:38:49.307Z,30.77
2018-12-18T05:41:12.459Z,34.43
2018-12-18T05:43:35.575Z,33.13
2018-12-18T05:45:58.698Z,34.77
2018-12-18T05:48:21.834Z,32.87
2018-12-18T05:50:44.996Z,34.23
2018-12-18T05:53:08.095Z,34.57
2018-12-18T05:55:31.211Z,34.40
2018-12-18T05:57:54.376Z,33.73
2018-12-18T06:00:17.519Z,35.97
2018-12-18T06:02:40.618Z,34.93
2018-12-18T06:05:04.621Z,34.80
2018-12-18T06:07:27.776Z,33.73
2018-12-18T06:09:50.922Z,32.63
2018-12-18T06:12:14.086Z,33.57
2018-12-18T06:14:37.194Z,33.60
2018-12-18T06:17:00.366Z,32.90
2018-12-18T06:19:23.486Z,34.07
2018-12-18T06:21:46.654Z,32.97
2018-12-18T06:24:09.779Z,33.30
2018-12-18T06:26:32.904Z,33.23
2018-12-18T06:28:56.027Z,31.93
2018-12-18T06:31:19.127Z,30.87
2018-12-18T06:33:42.266Z,32.03
2018-12-18T06:36:05.414Z,32.37
2018-12-18T06:38:28.558Z,32.30
2018-12-18T06:40:51.691Z,33.00
2018-12-18T06:43:14.790Z,32.27
2018-12-18T06:45:37.958Z,32.23
2018-12-18T06:48:01.083Z,32.50
2018-12-18T06:50:25.707Z,32.40
2018-12-18T06:52:48.827Z,32.40
2018-12-18T06:55:11.926Z,33.50
2018-12-18T06:57:35.072Z,34.50
2018-12-18T06:59:58.201Z,34.50
2018-12-18T07:02:21.360Z,37.53
2018-12-18T07:04:44.489Z,37.30
2018-12-18T07:07:07.614Z,33.63
2018-12-18T07:09:30.734Z,32.93
2018-12-18T07:11:53.877Z,31.30
2018-12-18T07:14:17.025Z,33.00
2018-12-18T07:16:40.151Z,32.03
2018-12-18T07:19:03.498Z,31.10
2018-12-18T07:21:26.606Z,30.67
2018-12-18T07:23:54.558Z,30.40
2018-12-18T07:26:17.711Z,28.77
2018-12-18T07:28:40.894Z,28.10
2018-12-18T07:31:04.006Z,28.50
2018-12-18T07:33:27.220Z,29.17
2018-12-18T07:35:50.342Z,28.10
2018-12-18T07:38:13.459Z,29.73
2018-12-18T07:40:36.617Z,28.37
2018-12-18T07:42:59.728Z,27.20
2018-12-18T07:45:22.861Z,25.53
2018-12-18T07:47:45.970Z,27.57
2018-12-18T07:50:09.193Z,25.83
2018-12-18T07:52:32.351Z,25.50
2018-12-18T07:54:55.515Z,26.57
2018-12-18T07:57:18.668Z,25.43
2018-12-18T07:59:41.774Z,24.87
2018-12-18T08:02:05.046Z,25.13
2018-12-18T08:04:28.186Z,25.07
2018-12-18T08:06:51.318Z,25.43
2018-12-18T08:09:14.466Z,24.30
2018-12-18T08:11:37.595Z,23.10
2018-12-18T08:14:00.730Z,22.73
2018-12-18T08:16:23.905Z,22.63
2018-12-18T08:18:47.015Z,23.27
2018-12-18T08:21:10.178Z,22.83
2018-12-18T08:23:33.294Z,21.70
2018-12-18T08:25:56.417Z,21.43
2018-12-18T08:28:19.567Z,22.40
2018-12-18T08:30:42.722Z,22.27
2018-12-18T08:33:05.850Z,21.10
2018-12-18T08:35:28.965Z,20.83
2018-12-18T08:37:52.124Z,19.97
2018-12-18T08:40:15.275Z,20.60
2018-12-18T08:42:38.393Z,20.47
2018-12-18T08:45:01.549Z,20.00
2018-12-18T08:47:25.355Z,19.53
2018-12-18T08:49:48.472Z,18.57
2018-12-18T08:52:11.656Z,19.20
2018-12-18T08:54:34.848Z,18.33
2018-12-18T08:56:58.026Z,19.50
2018-12-18T08:59:21.134Z,19.10
2018-12-18T09:01:44.273Z,19.23
2018-12-18T09:04:07.463Z,18.33
2018-12-18T09:06:30.630Z,17.47
2018-12-18T09:08:53.734Z,16.80
2018-12-18T09:11:16.879Z,16.53
2018-12-18T09:13:39.990Z,16.93
2018-12-18T09:16:05.082Z,17.27
2018-12-18T09:18:28.236Z,16.77
2018-12-18T09:20:51.397Z,16.60
2018-12-18T09:23:14.950Z,15.50
2018-12-18T09:25:38.120Z,16.20
2018-12-18T09:28:01.311Z,15.80
2018-12-18T09:30:24.429Z,16.80
2018-12-18T09:32:47.616Z,15.47
2018-12-18T09:35:10.784Z,14.93
2018-12-18T09:37:33.947Z,15.70
2018-12-18T09:39:57.102Z,16.30
2018-12-18T09:42:25.724Z,15.47
2018-12-18T09:44:48.848Z,15.50
2018-12-18T09:47:12.017Z,16.93
2018-12-18T09:49:35.158Z,15.80
2018-12-18T09:51:58.306Z,14.17
2018-12-18T09:54:21.469Z,15.50
2018-12-18T09:56:50.525Z,15.03
2018-12-18T09:59:13.702Z,14.87
2018-12-18T10:01:36.807Z,14.47
2018-12-18T10:03:59.929Z,14.03
2018-12-18T10:06:23.064Z,13.17
2018-12-18T10:08:46.264Z,12.83
2018-12-18T10:11:09.429Z,13.33
2018-12-18T10:13:32.538Z,13.43
2018-12-18T10:15:55.785Z,13.27
2018-12-18T10:18:18.892Z,13.13
2018-12-18T10:20:42.064Z,13.73
2018-12-18T10:23:05.228Z,13.17
2018-12-18T10:25:28.437Z,12.77
2018-12-18T10:27:51.613Z,12.73
2018-12-18T10:30:14.759Z,12.30
2018-12-18T10:32:37.873Z,13.00
2018-12-18T10:35:01.019Z,11.97
2018-12-18T10:37:24.146Z,11.63
2018-12-18T10:39:47.263Z,11.63
2018-12-18T10:42:10.454Z,11.53
2018-12-18T10:44:33.666Z,10.93
2018-12-18T10:46:56.809Z,11.27
2018-12-18T10:49:19.967Z,11.03
2018-12-18T10:51:43.096Z,10.63
2018-12-18T10:54:06.246Z,9.83
2018-12-18T10:56:29.397Z,10.00
2018-12-18T10:58:52.565Z,10.00
2018-12-18T11:01:17.658Z,8.80
2018-12-18T11:03:40.809Z,9.30
2018-12-18T11:06:09.599Z,10.07
2018-12-18T11:08:29.070Z,9.73
2018-12-18T11:10:52.196Z,9.40
2018-12-18T11:13:17.238Z,10.43
2018-12-18T11:15:40.352Z,9.77
2018-12-18T11:18:03.507Z,9.13
2018-12-18T11:20:26.623Z,9.73
2018-12-18T11:22:49.734Z,9.80
2018-12-18T11:25:12.881Z,10.57
2018-12-18T11:27:35.993Z,10.67
2018-12-18T11:29:59.185Z,12.23
2018-12-18T11:32:22.307Z,11.50
2018-12-18T11:34:45.425Z,10.27
2018-12-18T11:37:08.574Z,9.43
2018-12-18T11:39:31.700Z,10.43
2018-12-18T11:41:54.858Z,9.77
2018-12-18T11:44:17.971Z,10.13
2018-12-18T11:46:41.105Z,10.67
2018-12-18T11:49:04.275Z,9.17
2018-12-18T11:51:27.409Z,9.77
2018-12-18T11:53:50.551Z,9.00
2018-12-18T11:56:13.699Z,8.40
2018-12-18T11:58:36.827Z,9.03
2018-12-18T12:01:00.061Z,8.83
2018-12-18T12:03:23.184Z,8.07
2018-12-18T12:05:46.321Z,8.83
2018-12-18T12:08:09.446Z,8.40
2018-12-18T12:10:32.566Z,8.43
2018-12-18T12:12:55.742Z,8.30
2018-12-18T12:15:18.879Z,8.33
2018-12-18T12:17:42.081Z,9.37
2018-12-18T12:20:05.303Z,8.50
2018-12-18T12:22:28.437Z,8.83
2018-12-18T12:24:52.428Z,9.80
2018-12-18T12:27:21.206Z,10.80
2018-12-18T12:29:44.352Z,9.57
2018-12-18T12:32:07.497Z,9.37
2018-12-18T12:34:30.635Z,10.20
2018-12-18T12:36:53.774Z,10.47
2018-12-18T12:39:16.890Z,10.63
2018-12-18T12:41:40.058Z,11.37
2018-12-18T12:44:03.241Z,10.77
2018-12-18T12:46:26.401Z,11.23
2018-12-18T12:48:54.870Z,10.80
2018-12-18T12:51:18.006Z,10.57
2018-12-18T12:53:48.958Z,10.33
2018-12-18T12:56:12.125Z,11.73
2018-12-18T12:58:35.239Z,10.73
2018-12-18T13:00:58.392Z,10.97
2018-12-18T13:03:21.547Z,9.97
2018-12-18T13:05:44.693Z,10.20
2018-12-18T13:08:07.821Z,10.50
2018-12-18T13:10:30.978Z,9.83
2018-12-18T13:12:54.109Z,9.97
2018-12-18T13:15:17.228Z,10.33
2018-12-18T13:17:40.373Z,9.47
2018-12-18T13:20:04.259Z,9.63
2018-12-18T13:22:27.408Z,9.40
2018-12-18T13:24:50.501Z,9.23
2018-12-18T13:27:13.655Z,9.07
2018-12-18T13:29:37.221Z,7.87
2018-12-18T13:32:00.341Z,8.37
2018-12-18T13:34:23.509Z,7.83
2018-12-18T13:36:46.623Z,7.47
2018-12-18T13:39:09.877Z,7.37
2018-12-18T13:41:33.012Z,7.77
2018-12-18T13:43:56.120Z,7.40
2018-12-18T13:46:19.226Z,7.00
2018-12-18T13:48:42.408Z,7.13
2018-12-18T13:51:05.532Z,7.00
2018-12-18T13:53:28.625Z,7.03
2018-12-18T13:55:51.812Z,6.43
2018-12-18T13:58:14.938Z,6.83
2018-12-18T14:00:38.047Z,6.90
2018-12-18T14:03:01.193Z,6.87
2018-12-18T14:05:24.316Z,7.20
2018-12-18T14:07:47.500Z,6.77
2018-12-18T14:10:10.654Z,6.80
2018-12-18T14:12:33.807Z,6.30
2018-12-18T14:14:56.944Z,6.67
2018-12-18T14:17:20.059Z,6.17
2018-12-18T14:19:43.210Z,6.37
2018-12-18T14:22:06.380Z,5.90
2018-12-18T14:24:29.493Z,6.07
2018-12-18T14:26:52.628Z,6.60
2018-12-18T14:29:15.751Z,6.37
2018-12-18T14:31:38.897Z,6.17
2018-12-18T14:34:02.004Z,6.07
2018-12-18T14:36:25.158Z,6.33
2018-12-18T14:38:48.289Z,6.40
2018-12-18T14:41:11.460Z,6.33
2018-12-18T14:43:34.613Z,6.40
2018-12-18T14:45:57.799Z,6.23
2018-12-18T14:48:20.920Z,6.40
2018-12-18T14:50:44.062Z,6.30
2018-12-18T14:53:07.168Z,6.00
2018-12-18T14:55:30.320Z,6.53
2018-12-18T14:57:53.410Z,6.87
2018-12-18T15:00:16.577Z,6.80
2018-12-18T15:02:39.699Z,6.50
2018-12-18T15:05:02.830Z,5.70
2018-12-18T15:07:25.964Z,5.70
2018-12-18T15:09:49.050Z,5.63
2018-12-18T15:12:12.205Z,5.80
2018-12-18T15:14:35.328Z,6.73
2018-12-18T15:16:58.430Z,6.30
2018-12-18T15:19:21.558Z,5.67
2018-12-18T15:21:44.738Z,6.00
2018-12-18T15:24:07.866Z,6.27
2018-12-18T15:26:31.099Z,7.37
2018-12-18T15:28:54.236Z,6.07
2018-12-18T15:31:17.419Z,7.00
2018-12-18T15:33:40.551Z,6.43
2018-12-18T15:36:03.703Z,6.33
2018-12-18T15:38:26.971Z,6.53
2018-12-18T15:40:50.098Z,6.20
2018-12-18T15:43:13.228Z,7.03
2018-12-18T15:45:36.402Z,5.80
2018-12-18T15:47:59.532Z,6.03
2018-12-18T15:50:22.676Z,5.63
2018-12-18T15:52:45.806Z,6.20
2018-12-18T15:55:08.928Z,6.37
2018-12-18T15:57:32.111Z,6.00
2018-12-18T15:59:55.231Z,6.03
2018-12-18T16:02:24.120Z,7.67
2018-12-18T16:04:43.476Z,7.63
2018-12-18T16:07:06.584Z,7.40
2018-12-18T16:09:29.743Z,8.97
2018-12-18T16:11:52.861Z,9.40
2018-12-18T16:14:15.980Z,10.40
2018-12-18T16:16:39.128Z,12.10
2018-12-18T16:19:02.236Z,11.50
2018-12-18T16:21:25.401Z,10.20
2018-12-18T16:23:48.548Z,11.27
2018-12-18T16:26:11.653Z,8.63
2018-12-18T16:28:34.799Z,8.33
2018-12-18T16:30:57.927Z,7.80
2018-12-18T16:33:21.065Z,7.70
2018-12-18T16:35:46.268Z,7.97
2018-12-18T16:38:09.365Z,7.07
2018-12-18T16:40:32.501Z,6.80
2018-12-18T16:42:55.635Z,7.23
2018-12-18T16:45:18.854Z,6.57
2018-12-18T16:47:42.011Z,7.47
2018-12-18T16:50:05.548Z,7.17
2018-12-18T16:52:28.691Z,7.57
2018-12-18T16:54:51.811Z,8.60
2018-12-18T16:57:14.972Z,8.47
2018-12-18T16:59:38.100Z,8.57
2018-12-18T17:02:01.221Z,8.27
2018-12-18T17:04:24.363Z,9.03
2018-12-18T17:06:47.492Z,10.13
2018-12-18T17:09:10.683Z,8.67
2018-12-18T17:11:33.848Z,7.97
2018-12-18T17:13:56.983Z,8.23
2018-12-18T17:16:20.131Z,7.57
2018-12-18T17:18:43.272Z,8.73
2018-12-18T17:21:06.497Z,8.77
2018-12-18T17:23:29.654Z,8.83
2018-12-18T17:25:52.770Z,10.83
2018-12-18T17:28:15.934Z,10.13
2018-12-18T17:30:39.069Z,9.30
2018-12-18T17:33:02.226Z,8.43
2018-12-18T17:35:25.351Z,8.80
2018-12-18T17:37:48.478Z,7.63
2018-12-18T17:40:11.594Z,9.13
2018-12-18T17:42:34.752Z,7.90
2018-12-18T17:44:57.869Z,8.13
2018-12-18T17:47:27.792Z,8.23
2018-12-18T17:49:50.987Z,9.10
2018-12-18T17:52:14.139Z,8.63
2018-12-18T17:54:37.296Z,8.93
2018-12-18T17:57:00.449Z,9.47
2018-12-18T17:59:23.571Z,9.83
2018-12-18T18:01:46.748Z,9.27
2018-12-18T18:04:09.892Z,8.93
2018-12-18T18:06:33.099Z,9.87
2018-12-18T18:08:56.253Z,9.97
2018-12-18T18:11:19.411Z,9.10
2018-12-18T18:13:42.531Z,9.60
2018-12-18T18:16:05.661Z,9.30
2018-12-18T18:18:28.826Z,9.27
2018-12-18T18:20:51.924Z,9.30
2018-12-18T18:23:15.088Z,9.57
2018-12-18T18:25:38.200Z,9.67
2018-12-18T18:28:01.322Z,8.97
2018-12-18T18:30:24.464Z,9.60
2018-12-18T18:32:47.653Z,9.77
2018-12-18T18:35:10.779Z,8.57
2018-12-18T18:37:33.933Z,8.23
2018-12-18T18:39:57.080Z,8.03
2018-12-18T18:42:20.275Z,8.77
2018-12-18T18:44:43.402Z,8.70
2018-12-18T18:47:06.548Z,8.83
2018-12-18T18:49:29.686Z,8.47
2018-12-18T18:51:52.813Z,7.30
2018-12-18T18:54:15.995Z,7.47
2018-12-18T18:56:39.121Z,7.53
2018-12-18T18:59:02.309Z,7.00
2018-12-18T19:01:25.446Z,7.50
2018-12-18T19:03:48.561Z,7.87
2018-12-18T19:06:11.741Z,7.63
2018-12-18T19:11:20.687Z,7.67
2018-12-18T19:13:43.821Z,8.00
2018-12-18T19:16:07.004Z,8.10
2018-12-18T19:18:30.157Z,7.93
2018-12-18T19:20:53.339Z,7.97
2018-12-18T19:23:16.496Z,9.33
2018-12-18T19:25:39.598Z,9.43
2018-12-18T19:28:02.716Z,9.27
2018-12-18T19:30:25.855Z,8.43
2018-12-18T19:32:48.958Z,8.00
2018-12-18T19:35:12.149Z,7.73
2018-12-18T19:37:35.292Z,7.30
2018-12-18T19:39:58.430Z,7.90
2018-12-18T19:42:21.830Z,8.47
2018-12-18T19:44:45.401Z,7.63
2018-12-18T19:47:08.543Z,7.33
2018-12-18T19:49:31.697Z,7.13
2018-12-18T19:51:54.815Z,8.27
2018-12-18T19:54:17.951Z,7.83
2018-12-18T19:56:41.048Z,7.37
2018-12-18T19:59:10.660Z,8.00
2018-12-18T20:01:29.426Z,7.27
2018-12-18T20:03:52.510Z,7.87
2018-12-18T20:06:15.719Z,7.93
2018-12-18T20:08:38.871Z,7.63
2018-12-18T20:11:02.052Z,7.43
2018-12-18T20:13:25.181Z,7.43
2018-12-18T20:15:48.360Z,7.73
2018-12-18T20:18:11.481Z,7.27
2018-12-18T20:20:34.602Z,7.13
2018-12-18T20:22:57.803Z,7.13
2018-12-18T20:25:20.931Z,7.60
2018-12-18T20:27:44.085Z,8.93
2018-12-18T20:30:07.331Z,7.70
2018-12-18T20:32:30.470Z,8.10
2018-12-18T20:34:53.646Z,7.30
2018-12-18T20:37:18.348Z,7.77
2018-12-18T20:39:41.728Z,8.10
2018-12-18T20:42:04.928Z,8.73
2018-12-18T20:44:28.062Z,7.50
2018-12-18T20:46:51.172Z,7.23
2018-12-18T20:49:14.335Z,8.37
2018-12-18T20:51:37.443Z,8.13
2018-12-18T20:54:00.558Z,8.37
2018-12-18T20:56:23.722Z,8.07
2018-12-18T20:58:46.832Z,8.37
2018-12-18T21:01:09.935Z,9.00
2018-12-18T21:03:33.083Z,9.23
2018-12-18T21:08:32.136Z,9.53
2018-12-18T21:10:55.238Z,9.97
2018-12-18T21:13:24.095Z,10.37
2018-12-18T21:15:47.247Z,10.27
2018-12-18T21:18:10.394Z,10.67
2018-12-18T21:20:33.593Z,11.20
2018-12-18T21:22:56.707Z,10.97
2018-12-18T21:25:19.822Z,10.67
2018-12-18T21:27:44.513Z,11.40
2018-12-18T21:30:08.919Z,11.90
2018-12-18T21:32:32.075Z,11.07
2018-12-18T21:34:55.252Z,11.57
2018-12-18T21:37:18.371Z,11.13
2018-12-18T21:39:42.663Z,11.13
2018-12-18T21:42:05.774Z,10.47
2018-12-18T21:44:28.919Z,10.47
2018-12-18T21:46:52.045Z,10.63
2018-12-18T21:49:15.145Z,10.17
2018-12-18T21:51:38.302Z,10.97
2018-12-18T21:54:01.410Z,10.43
2018-12-18T21:56:24.521Z,10.30
2018-12-18T21:58:47.633Z,11.23
2018-12-18T22:01:10.749Z,10.80
2018-12-18T22:03:33.865Z,11.10
2018-12-18T22:05:56.963Z,11.43
2018-12-18T22:08:20.126Z,11.17
2018-12-18T22:10:43.238Z,11.20
2018-12-18T22:13:06.379Z,11.20
2018-12-18T22:15:29.534Z,11.20
2018-12-18T22:17:52.627Z,11.63
2018-12-18T22:20:15.747Z,11.27
2018-12-18T22:22:38.886Z,11.93
2018-12-18T22:25:02.033Z,11.77
2018-12-18T22:27:25.155Z,10.73
2018-12-18T22:29:48.406Z,11.40
2018-12-18T22:32:11.499Z,11.40
2018-12-18T22:34:34.626Z,11.53
2018-12-18T22:36:57.754Z,11.47
2018-12-18T22:39:20.851Z,10.97
2018-12-18T22:41:43.982Z,10.93
2018-12-18T22:44:07.105Z,10.93
2018-12-18T22:46:30.212Z,11.20
2018-12-18T22:48:53.334Z,10.77
2018-12-18T22:51:16.482Z,10.70
2018-12-18T22:53:39.597Z,11.40
2018-12-18T22:56:02.712Z,11.80
2018-12-18T22:58:25.837Z,11.40
2018-12-18T23:00:52.781Z,11.43
2018-12-18T23:03:15.889Z,10.60
2018-12-18T23:05:38.990Z,11.20
2018-12-18T23:08:02.117Z,11.80
2018-12-18T23:10:25.259Z,11.73
2018-12-18T23:12:48.404Z,11.93
2018-12-18T23:15:11.530Z,10.97
2018-12-18T23:17:34.677Z,11.43
2018-12-18T23:19:57.803Z,11.70
2018-12-18T23:22:20.918Z,11.53
2018-12-18T23:24:44.075Z,11.93
2018-12-18T23:27:07.159Z,12.00
2018-12-18T23:29:30.274Z,11.50
2018-12-18T23:31:53.399Z,11.13
2018-12-18T23:34:16.510Z,12.30
2018-12-18T23:36:40.171Z,11.63
2018-12-18T23:39:05.255Z,12.03
2018-12-18T23:41:28.396Z,11.80
2018-12-18T23:43:51.517Z,11.30
2018-12-18T23:46:14.627Z,12.40
2018-12-18T23:48:39.862Z,11.70
2018-12-18T23:51:03.533Z,11.60
2018-12-18T23:53:26.624Z,11.13
2018-12-18T23:55:49.719Z,11.67
2018-12-18T23:58:12.858Z,11.60
